sensor_id;sensor_type;location;lat;lon;timestamp;temperature;humidity
45643;DHT22;31358;46.008;11.144;2022-07-05T00:01:51;19.80;99.90
45643;DHT22;31358;46.008;11.144;2022-07-05T00:04:16;19.60;99.90
45643;DHT22;31358;46.008;11.144;2022-07-05T00:06:42;19.60;99.90
45643;DHT22;31358;46.008;11.144;2022-07-05T00:09:28;19.70;99.90
45643;DHT22;31358;46.008;11.144;2022-07-05T00:11:53;19.60;99.90
45643;DHT22;31358;46.008;11.144;2022-07-05T00:14:19;19.80;99.90
45643;DHT22;31358;46.008;11.144;2022-07-05T00:16:45;19.90;99.90
45643;DHT22;31358;46.008;11.144;2022-07-05T00:19:11;20.00;99.90
45643;DHT22;31358;46.008;11.144;2022-07-05T00:21:36;20.00;99.90
45643;DHT22;31358;46.008;11.144;2022-07-05T00:24:02;19.90;99.90
45643;DHT22;31358;46.008;11.144;2022-07-05T00:26:28;19.60;99.90
45643;DHT22;31358;46.008;11.144;2022-07-05T00:28:54;19.80;99.90
45643;DHT22;31358;46.008;11.144;2022-07-05T00:31:19;20.00;99.90
45643;DHT22;31358;46.008;11.144;2022-07-05T00:33:45;19.80;99.90
45643;DHT22;31358;46.008;11.144;2022-07-05T00:36:11;19.80;99.90
45643;DHT22;31358;46.008;11.144;2022-07-05T00:38:36;19.80;99.90
45643;DHT22;31358;46.008;11.144;2022-07-05T00:41:02;19.60;99.90
45643;DHT22;31358;46.008;11.144;2022-07-05T00:43:28;19.70;99.90
45643;DHT22;31358;46.008;11.144;2022-07-05T00:45:53;19.70;99.90
45643;DHT22;31358;46.008;11.144;2022-07-05T00:48:19;19.50;99.90
45643;DHT22;31358;46.008;11.144;2022-07-05T00:50:45;19.50;99.90
45643;DHT22;31358;46.008;11.144;2022-07-05T00:53:11;19.40;99.90
45643;DHT22;31358;46.008;11.144;2022-07-05T00:55:36;19.40;99.90
45643;DHT22;31358;46.008;11.144;2022-07-05T00:58:03;19.40;99.90
45643;DHT22;31358;46.008;11.144;2022-07-05T01:00:28;19.10;99.90
45643;DHT22;31358;46.008;11.144;2022-07-05T01:02:54;19.20;99.90
45643;DHT22;31358;46.008;11.144;2022-07-05T01:05:20;19.20;99.90
45643;DHT22;31358;46.008;11.144;2022-07-05T01:07:46;19.40;99.90
45643;DHT22;31358;46.008;11.144;2022-07-05T01:10:12;19.30;99.90
45643;DHT22;31358;46.008;11.144;2022-07-05T01:12:39;19.10;99.90
45643;DHT22;31358;46.008;11.144;2022-07-05T01:15:05;19.10;99.90
45643;DHT22;31358;46.008;11.144;2022-07-05T01:17:31;19.20;99.90
45643;DHT22;31358;46.008;11.144;2022-07-05T01:19:58;19.10;99.90
45643;DHT22;31358;46.008;11.144;2022-07-05T01:22:26;19.10;99.90
45643;DHT22;31358;46.008;11.144;2022-07-05T01:24:52;19.00;99.90
45643;DHT22;31358;46.008;11.144;2022-07-05T01:27:19;19.10;99.90
45643;DHT22;31358;46.008;11.144;2022-07-05T01:29:45;19.00;99.90
45643;DHT22;31358;46.008;11.144;2022-07-05T01:32:11;19.10;99.90
45643;DHT22;31358;46.008;11.144;2022-07-05T01:34:38;19.10;99.90
45643;DHT22;31358;46.008;11.144;2022-07-05T01:37:05;19.00;99.90
45643;DHT22;31358;46.008;11.144;2022-07-05T01:39:31;19.10;99.90
45643;DHT22;31358;46.008;11.144;2022-07-05T01:41:57;19.50;99.90
45643;DHT22;31358;46.008;11.144;2022-07-05T01:44:23;19.60;99.90
45643;DHT22;31358;46.008;11.144;2022-07-05T01:46:54;19.70;99.90
45643;DHT22;31358;46.008;11.144;2022-07-05T01:49:24;19.70;99.90
45643;DHT22;31358;46.008;11.144;2022-07-05T01:51:54;19.50;99.90
45643;DHT22;31358;46.008;11.144;2022-07-05T01:54:22;19.50;99.90
45643;DHT22;31358;46.008;11.144;2022-07-05T01:56:48;19.50;99.90
45643;DHT22;31358;46.008;11.144;2022-07-05T01:59:14;19.50;99.90
45643;DHT22;31358;46.008;11.144;2022-07-05T02:01:40;19.60;99.90
45643;DHT22;31358;46.008;11.144;2022-07-05T02:04:08;19.60;99.90
45643;DHT22;31358;46.008;11.144;2022-07-05T02:06:34;19.50;99.90
45643;DHT22;31358;46.008;11.144;2022-07-05T02:09:01;19.60;99.90
45643;DHT22;31358;46.008;11.144;2022-07-05T02:11:27;19.50;99.90
45643;DHT22;31358;46.008;11.144;2022-07-05T02:13:52;19.50;99.90
45643;DHT22;31358;46.008;11.144;2022-07-05T02:16:22;19.30;99.90
45643;DHT22;31358;46.008;11.144;2022-07-05T02:18:48;19.30;99.90
45643;DHT22;31358;46.008;11.144;2022-07-05T02:21:14;19.10;99.90
45643;DHT22;31358;46.008;11.144;2022-07-05T02:23:39;19.00;99.90
45643;DHT22;31358;46.008;11.144;2022-07-05T02:26:05;18.80;99.90
45643;DHT22;31358;46.008;11.144;2022-07-05T02:28:30;18.80;99.90
45643;DHT22;31358;46.008;11.144;2022-07-05T02:30:56;18.70;99.90
45643;DHT22;31358;46.008;11.144;2022-07-05T02:33:22;19.00;99.90
45643;DHT22;31358;46.008;11.144;2022-07-05T02:35:48;19.20;99.90
45643;DHT22;31358;46.008;11.144;2022-07-05T02:38:13;19.20;99.90
45643;DHT22;31358;46.008;11.144;2022-07-05T02:40:39;19.20;99.90
45643;DHT22;31358;46.008;11.144;2022-07-05T02:43:06;19.20;99.90
45643;DHT22;31358;46.008;11.144;2022-07-05T02:45:31;19.20;99.90
45643;DHT22;31358;46.008;11.144;2022-07-05T02:47:57;19.20;99.90
45643;DHT22;31358;46.008;11.144;2022-07-05T02:50:23;19.10;99.90
45643;DHT22;31358;46.008;11.144;2022-07-05T02:52:49;18.90;99.90
45643;DHT22;31358;46.008;11.144;2022-07-05T02:55:14;19.00;99.90
45643;DHT22;31358;46.008;11.144;2022-07-05T02:57:40;19.00;99.90
45643;DHT22;31358;46.008;11.144;2022-07-05T03:00:06;19.10;99.90
45643;DHT22;31358;46.008;11.144;2022-07-05T03:02:32;19.10;99.90
45643;DHT22;31358;46.008;11.144;2022-07-05T03:04:58;19.00;99.90
45643;DHT22;31358;46.008;11.144;2022-07-05T03:07:23;19.10;99.90
45643;DHT22;31358;46.008;11.144;2022-07-05T03:09:49;19.00;99.90
45643;DHT22;31358;46.008;11.144;2022-07-05T03:12:15;18.70;99.90
45643;DHT22;31358;46.008;11.144;2022-07-05T03:14:40;18.70;99.90
45643;DHT22;31358;46.008;11.144;2022-07-05T03:17:07;18.70;99.90
45643;DHT22;31358;46.008;11.144;2022-07-05T03:19:32;18.50;99.90
45643;DHT22;31358;46.008;11.144;2022-07-05T03:21:58;18.60;99.90
45643;DHT22;31358;46.008;11.144;2022-07-05T03:24:24;18.50;99.90
45643;DHT22;31358;46.008;11.144;2022-07-05T03:26:49;18.50;99.90
45643;DHT22;31358;46.008;11.144;2022-07-05T03:29:15;18.50;99.90
45643;DHT22;31358;46.008;11.144;2022-07-05T03:31:41;18.60;99.90
45643;DHT22;31358;46.008;11.144;2022-07-05T03:34:06;18.80;99.90
45643;DHT22;31358;46.008;11.144;2022-07-05T03:36:32;18.90;99.90
45643;DHT22;31358;46.008;11.144;2022-07-05T03:38:58;18.90;99.90
45643;DHT22;31358;46.008;11.144;2022-07-05T03:41:24;18.90;99.90
45643;DHT22;31358;46.008;11.144;2022-07-05T03:43:49;19.00;99.90
45643;DHT22;31358;46.008;11.144;2022-07-05T03:46:15;19.10;99.90
45643;DHT22;31358;46.008;11.144;2022-07-05T03:48:40;19.00;99.90
45643;DHT22;31358;46.008;11.144;2022-07-05T03:51:06;19.10;99.90
45643;DHT22;31358;46.008;11.144;2022-07-05T03:53:32;19.10;99.90
45643;DHT22;31358;46.008;11.144;2022-07-05T03:55:57;19.10;99.90
45643;DHT22;31358;46.008;11.144;2022-07-05T03:58:23;19.20;99.90
45643;DHT22;31358;46.008;11.144;2022-07-05T04:00:49;19.10;99.90
45643;DHT22;31358;46.008;11.144;2022-07-05T04:03:14;19.10;99.90
45643;DHT22;31358;46.008;11.144;2022-07-05T04:05:40;19.30;99.90
45643;DHT22;31358;46.008;11.144;2022-07-05T04:08:07;19.20;99.90
45643;DHT22;31358;46.008;11.144;2022-07-05T04:10:32;19.10;99.90
45643;DHT22;31358;46.008;11.144;2022-07-05T04:12:58;19.20;99.90
45643;DHT22;31358;46.008;11.144;2022-07-05T04:15:24;19.20;99.90
45643;DHT22;31358;46.008;11.144;2022-07-05T04:17:52;19.20;99.90
45643;DHT22;31358;46.008;11.144;2022-07-05T04:20:19;19.40;99.90
45643;DHT22;31358;46.008;11.144;2022-07-05T04:22:46;19.20;99.90
45643;DHT22;31358;46.008;11.144;2022-07-05T04:25:12;19.20;99.90
45643;DHT22;31358;46.008;11.144;2022-07-05T04:27:51;19.20;99.90
45643;DHT22;31358;46.008;11.144;2022-07-05T04:30:19;19.30;99.90
45643;DHT22;31358;46.008;11.144;2022-07-05T04:32:44;19.40;99.90
45643;DHT22;31358;46.008;11.144;2022-07-05T04:35:11;19.40;99.90
45643;DHT22;31358;46.008;11.144;2022-07-05T04:37:37;19.40;99.90
45643;DHT22;31358;46.008;11.144;2022-07-05T04:40:05;19.20;99.90
45643;DHT22;31358;46.008;11.144;2022-07-05T04:42:31;19.40;99.90
45643;DHT22;31358;46.008;11.144;2022-07-05T04:44:57;19.50;99.90
45643;DHT22;31358;46.008;11.144;2022-07-05T04:47:22;19.60;99.90
45643;DHT22;31358;46.008;11.144;2022-07-05T04:49:48;19.50;99.90
45643;DHT22;31358;46.008;11.144;2022-07-05T04:52:14;19.50;99.90
45643;DHT22;31358;46.008;11.144;2022-07-05T04:54:39;19.50;99.90
45643;DHT22;31358;46.008;11.144;2022-07-05T04:57:05;19.40;99.90
45643;DHT22;31358;46.008;11.144;2022-07-05T04:59:31;19.50;99.90
45643;DHT22;31358;46.008;11.144;2022-07-05T05:01:57;19.50;99.90
45643;DHT22;31358;46.008;11.144;2022-07-05T05:04:22;19.60;99.90
45643;DHT22;31358;46.008;11.144;2022-07-05T05:06:48;19.70;99.90
45643;DHT22;31358;46.008;11.144;2022-07-05T05:09:14;19.80;99.90
45643;DHT22;31358;46.008;11.144;2022-07-05T05:11:39;19.90;99.90
45643;DHT22;31358;46.008;11.144;2022-07-05T05:14:05;19.80;99.90
45643;DHT22;31358;46.008;11.144;2022-07-05T05:16:31;19.90;99.90
45643;DHT22;31358;46.008;11.144;2022-07-05T05:18:56;20.00;99.90
45643;DHT22;31358;46.008;11.144;2022-07-05T05:21:22;20.10;99.90
45643;DHT22;31358;46.008;11.144;2022-07-05T05:23:48;20.00;99.90
45643;DHT22;31358;46.008;11.144;2022-07-05T05:26:13;20.00;99.90
45643;DHT22;31358;46.008;11.144;2022-07-05T05:28:39;19.90;99.90
45643;DHT22;31358;46.008;11.144;2022-07-05T05:31:05;19.90;99.90
45643;DHT22;31358;46.008;11.144;2022-07-05T05:33:31;19.90;99.90
45643;DHT22;31358;46.008;11.144;2022-07-05T05:35:57;20.00;99.90
45643;DHT22;31358;46.008;11.144;2022-07-05T05:38:22;19.90;99.90
45643;DHT22;31358;46.008;11.144;2022-07-05T05:40:48;20.00;99.90
45643;DHT22;31358;46.008;11.144;2022-07-05T05:43:14;20.00;99.90
45643;DHT22;31358;46.008;11.144;2022-07-05T05:45:39;20.00;99.90
45643;DHT22;31358;46.008;11.144;2022-07-05T05:48:05;20.00;99.90
45643;DHT22;31358;46.008;11.144;2022-07-05T05:50:33;20.00;99.90
45643;DHT22;31358;46.008;11.144;2022-07-05T05:52:59;20.10;99.90
45643;DHT22;31358;46.008;11.144;2022-07-05T05:55:27;20.20;99.90
45643;DHT22;31358;46.008;11.144;2022-07-05T05:57:53;20.10;99.90
45643;DHT22;31358;46.008;11.144;2022-07-05T06:00:20;20.10;99.90
45643;DHT22;31358;46.008;11.144;2022-07-05T06:02:48;20.00;99.90
45643;DHT22;31358;46.008;11.144;2022-07-05T06:05:15;20.00;99.90
45643;DHT22;31358;46.008;11.144;2022-07-05T06:07:53;20.00;99.90
45643;DHT22;31358;46.008;11.144;2022-07-05T06:10:24;20.00;99.90
45643;DHT22;31358;46.008;11.144;2022-07-05T06:12:51;20.00;99.90
45643;DHT22;31358;46.008;11.144;2022-07-05T06:15:17;20.10;99.90
45643;DHT22;31358;46.008;11.144;2022-07-05T06:17:43;20.10;99.90
45643;DHT22;31358;46.008;11.144;2022-07-05T06:20:14;20.00;99.90
45643;DHT22;31358;46.008;11.144;2022-07-05T06:22:40;20.10;99.90
45643;DHT22;31358;46.008;11.144;2022-07-05T06:25:06;20.20;99.90
45643;DHT22;31358;46.008;11.144;2022-07-05T06:27:41;20.40;99.90
45643;DHT22;31358;46.008;11.144;2022-07-05T06:30:07;20.70;99.90
45643;DHT22;31358;46.008;11.144;2022-07-05T06:32:33;21.00;99.90
45643;DHT22;31358;46.008;11.144;2022-07-05T06:34:59;21.30;99.90
45643;DHT22;31358;46.008;11.144;2022-07-05T06:37:25;21.30;99.90
45643;DHT22;31358;46.008;11.144;2022-07-05T06:39:50;21.30;99.90
45643;DHT22;31358;46.008;11.144;2022-07-05T06:42:16;21.40;99.90
45643;DHT22;31358;46.008;11.144;2022-07-05T06:44:42;21.40;99.90
45643;DHT22;31358;46.008;11.144;2022-07-05T06:47:09;21.50;99.90
45643;DHT22;31358;46.008;11.144;2022-07-05T06:49:35;21.50;99.90
45643;DHT22;31358;46.008;11.144;2022-07-05T06:52:01;21.50;99.90
45643;DHT22;31358;46.008;11.144;2022-07-05T06:54:26;21.40;99.90
45643;DHT22;31358;46.008;11.144;2022-07-05T06:56:52;21.30;99.90
45643;DHT22;31358;46.008;11.144;2022-07-05T06:59:21;21.20;99.90
45643;DHT22;31358;46.008;11.144;2022-07-05T07:01:47;21.40;99.90
45643;DHT22;31358;46.008;11.144;2022-07-05T07:04:13;21.30;99.90
45643;DHT22;31358;46.008;11.144;2022-07-05T07:06:38;21.50;99.90
45643;DHT22;31358;46.008;11.144;2022-07-05T07:09:04;21.70;99.90
45643;DHT22;31358;46.008;11.144;2022-07-05T07:11:48;22.30;99.90
45643;DHT22;31358;46.008;11.144;2022-07-05T07:14:14;22.70;99.90
45643;DHT22;31358;46.008;11.144;2022-07-05T07:16:40;22.20;99.40
45643;DHT22;31358;46.008;11.144;2022-07-05T07:19:06;22.60;99.50
45643;DHT22;31358;46.008;11.144;2022-07-05T07:21:32;22.90;98.90
45643;DHT22;31358;46.008;11.144;2022-07-05T07:23:57;22.70;98.30
45643;DHT22;31358;46.008;11.144;2022-07-05T07:26:23;22.90;97.80
45643;DHT22;31358;46.008;11.144;2022-07-05T07:28:48;23.30;97.80
45643;DHT22;31358;46.008;11.144;2022-07-05T07:31:14;23.70;97.10
45643;DHT22;31358;46.008;11.144;2022-07-05T07:33:40;24.20;96.40
45643;DHT22;31358;46.008;11.144;2022-07-05T07:36:07;24.50;96.20
45643;DHT22;31358;46.008;11.144;2022-07-05T07:38:32;25.70;95.90
45643;DHT22;31358;46.008;11.144;2022-07-05T07:40:58;26.60;94.60
45643;DHT22;31358;46.008;11.144;2022-07-05T07:43:26;27.70;92.80
45643;DHT22;31358;46.008;11.144;2022-07-05T07:45:51;28.20;92.20
45643;DHT22;31358;46.008;11.144;2022-07-05T07:48:17;26.80;93.90
45643;DHT22;31358;46.008;11.144;2022-07-05T07:50:44;26.30;93.90
45643;DHT22;31358;46.008;11.144;2022-07-05T07:53:10;25.60;94.50
45643;DHT22;31358;46.008;11.144;2022-07-05T07:55:35;25.20;95.10
45643;DHT22;31358;46.008;11.144;2022-07-05T07:58:01;24.50;95.90
45643;DHT22;31358;46.008;11.144;2022-07-05T08:00:27;24.30;96.20
45643;DHT22;31358;46.008;11.144;2022-07-05T08:02:53;24.50;96.40
45643;DHT22;31358;46.008;11.144;2022-07-05T08:05:19;24.40;96.40
45643;DHT22;31358;46.008;11.144;2022-07-05T08:07:44;24.60;96.10
45643;DHT22;31358;46.008;11.144;2022-07-05T08:10:10;24.90;96.30
45643;DHT22;31358;46.008;11.144;2022-07-05T08:12:36;24.70;95.50
45643;DHT22;31358;46.008;11.144;2022-07-05T08:15:01;25.30;94.90
45643;DHT22;31358;46.008;11.144;2022-07-05T08:17:27;26.00;93.90
45643;DHT22;31358;46.008;11.144;2022-07-05T08:19:53;25.90;94.20
45643;DHT22;31358;46.008;11.144;2022-07-05T08:22:37;26.10;94.10
45643;DHT22;31358;46.008;11.144;2022-07-05T08:25:03;26.20;93.30
45643;DHT22;31358;46.008;11.144;2022-07-05T08:27:28;25.90;93.70
45643;DHT22;31358;46.008;11.144;2022-07-05T08:29:54;25.90;93.80
45643;DHT22;31358;46.008;11.144;2022-07-05T08:32:21;25.90;94.00
45643;DHT22;31358;46.008;11.144;2022-07-05T08:34:46;26.30;93.40
45643;DHT22;31358;46.008;11.144;2022-07-05T08:37:12;26.20;92.30
45643;DHT22;31358;46.008;11.144;2022-07-05T08:39:38;26.10;92.80
45643;DHT22;31358;46.008;11.144;2022-07-05T08:42:08;26.40;92.70
45643;DHT22;31358;46.008;11.144;2022-07-05T08:44:35;26.10;93.00
45643;DHT22;31358;46.008;11.144;2022-07-05T08:47:08;26.30;93.20
45643;DHT22;31358;46.008;11.144;2022-07-05T08:49:35;26.50;93.60
45643;DHT22;31358;46.008;11.144;2022-07-05T08:52:03;26.60;93.70
45643;DHT22;31358;46.008;11.144;2022-07-05T08:54:31;26.80;93.50
45643;DHT22;31358;46.008;11.144;2022-07-05T08:56:57;26.80;93.30
45643;DHT22;31358;46.008;11.144;2022-07-05T08:59:23;26.80;93.80
45643;DHT22;31358;46.008;11.144;2022-07-05T09:01:49;26.60;92.90
45643;DHT22;31358;46.008;11.144;2022-07-05T09:04:17;26.70;93.30
45643;DHT22;31358;46.008;11.144;2022-07-05T09:06:45;27.00;91.90
45643;DHT22;31358;46.008;11.144;2022-07-05T09:09:12;27.10;92.20
45643;DHT22;31358;46.008;11.144;2022-07-05T09:11:42;26.80;93.00
45643;DHT22;31358;46.008;11.144;2022-07-05T09:14:23;26.70;92.50
45643;DHT22;31358;46.008;11.144;2022-07-05T09:16:50;27.00;92.90
45643;DHT22;31358;46.008;11.144;2022-07-05T09:19:16;26.80;92.40
45643;DHT22;31358;46.008;11.144;2022-07-05T09:21:42;27.10;92.20
45643;DHT22;31358;46.008;11.144;2022-07-05T09:24:09;27.30;93.20
45643;DHT22;31358;46.008;11.144;2022-07-05T09:26:47;27.30;92.80
45643;DHT22;31358;46.008;11.144;2022-07-05T09:29:18;27.60;92.30
45643;DHT22;31358;46.008;11.144;2022-07-05T09:31:46;27.60;92.70
45643;DHT22;31358;46.008;11.144;2022-07-05T09:34:16;27.70;92.70
45643;DHT22;31358;46.008;11.144;2022-07-05T09:42:18;27.80;92.40
45643;DHT22;31358;46.008;11.144;2022-07-05T09:44:57;28.10;91.20
45643;DHT22;31358;46.008;11.144;2022-07-05T09:47:29;28.10;90.90
45643;DHT22;31358;46.008;11.144;2022-07-05T09:49:56;28.30;92.30
45643;DHT22;31358;46.008;11.144;2022-07-05T09:52:29;28.30;92.20
45643;DHT22;31358;46.008;11.144;2022-07-05T09:55:05;28.20;91.70
45643;DHT22;31358;46.008;11.144;2022-07-05T09:57:32;28.40;91.80
45643;DHT22;31358;46.008;11.144;2022-07-05T10:02:41;29.00;90.50
45643;DHT22;31358;46.008;11.144;2022-07-05T10:05:13;28.50;90.90
45643;DHT22;31358;46.008;11.144;2022-07-05T10:07:44;28.50;91.40
45643;DHT22;31358;46.008;11.144;2022-07-05T10:10:12;28.40;91.30
45643;DHT22;31358;46.008;11.144;2022-07-05T10:12:39;29.00;90.00
45643;DHT22;31358;46.008;11.144;2022-07-05T10:15:08;29.50;89.70
45643;DHT22;31358;46.008;11.144;2022-07-05T10:17:37;29.70;89.00
45643;DHT22;31358;46.008;11.144;2022-07-05T10:20:10;29.60;90.10
45643;DHT22;31358;46.008;11.144;2022-07-05T10:22:36;29.40;90.30
45643;DHT22;31358;46.008;11.144;2022-07-05T10:25:03;29.50;90.30
45643;DHT22;31358;46.008;11.144;2022-07-05T10:27:29;29.60;90.50
45643;DHT22;31358;46.008;11.144;2022-07-05T10:29:56;29.40;87.70
45643;DHT22;31358;46.008;11.144;2022-07-05T10:32:23;29.40;90.60
45643;DHT22;31358;46.008;11.144;2022-07-05T10:34:51;29.80;89.40
45643;DHT22;31358;46.008;11.144;2022-07-05T10:37:17;29.50;88.00
45643;DHT22;31358;46.008;11.144;2022-07-05T10:39:43;29.60;89.30
45643;DHT22;31358;46.008;11.144;2022-07-05T10:42:10;30.30;89.80
45643;DHT22;31358;46.008;11.144;2022-07-05T10:44:36;30.40;88.70
45643;DHT22;31358;46.008;11.144;2022-07-05T10:47:10;30.50;89.20
45643;DHT22;31358;46.008;11.144;2022-07-05T10:49:36;30.30;89.70
45643;DHT22;31358;46.008;11.144;2022-07-05T10:52:03;29.60;90.30
45643;DHT22;31358;46.008;11.144;2022-07-05T10:54:29;28.90;90.50
45643;DHT22;31358;46.008;11.144;2022-07-05T10:57:21;29.50;90.80
45643;DHT22;31358;46.008;11.144;2022-07-05T11:00:10;29.80;90.40
45643;DHT22;31358;46.008;11.144;2022-07-05T11:02:37;29.60;90.50
45643;DHT22;31358;46.008;11.144;2022-07-05T11:05:03;30.10;90.50
45643;DHT22;31358;46.008;11.144;2022-07-05T11:08:00;29.80;90.30
45643;DHT22;31358;46.008;11.144;2022-07-05T11:10:26;29.50;90.50
45643;DHT22;31358;46.008;11.144;2022-07-05T11:12:52;29.30;90.80
45643;DHT22;31358;46.008;11.144;2022-07-05T11:15:18;29.20;90.90
45643;DHT22;31358;46.008;11.144;2022-07-05T11:17:44;29.40;90.30
45643;DHT22;31358;46.008;11.144;2022-07-05T11:20:12;29.40;89.10
45643;DHT22;31358;46.008;11.144;2022-07-05T11:23:00;29.90;89.90
45643;DHT22;31358;46.008;11.144;2022-07-05T11:25:32;30.10;90.60
45643;DHT22;31358;46.008;11.144;2022-07-05T11:28:20;30.40;89.40
45643;DHT22;31358;46.008;11.144;2022-07-05T11:30:58;29.90;89.20
45643;DHT22;31358;46.008;11.144;2022-07-05T11:33:30;30.10;88.50
45643;DHT22;31358;46.008;11.144;2022-07-05T11:35:57;30.00;88.90
45643;DHT22;31358;46.008;11.144;2022-07-05T11:38:23;29.60;90.00
45643;DHT22;31358;46.008;11.144;2022-07-05T11:40:49;29.60;90.50
45643;DHT22;31358;46.008;11.144;2022-07-05T11:43:14;30.00;90.30
45643;DHT22;31358;46.008;11.144;2022-07-05T11:45:58;29.80;90.20
45643;DHT22;31358;46.008;11.144;2022-07-05T11:48:29;29.70;89.50
45643;DHT22;31358;46.008;11.144;2022-07-05T11:50:55;29.80;89.50
45643;DHT22;31358;46.008;11.144;2022-07-05T11:53:31;29.90;88.00
45643;DHT22;31358;46.008;11.144;2022-07-05T11:55:59;29.60;86.20
45643;DHT22;31358;46.008;11.144;2022-07-05T11:58:32;29.90;87.90
45643;DHT22;31358;46.008;11.144;2022-07-05T12:00:58;30.20;88.80
45643;DHT22;31358;46.008;11.144;2022-07-05T12:03:24;30.00;86.70
45643;DHT22;31358;46.008;11.144;2022-07-05T12:05:50;30.10;86.40
45643;DHT22;31358;46.008;11.144;2022-07-05T12:08:21;30.00;87.00
45643;DHT22;31358;46.008;11.144;2022-07-05T12:10:47;30.20;88.00
45643;DHT22;31358;46.008;11.144;2022-07-05T12:13:41;30.00;86.10
45643;DHT22;31358;46.008;11.144;2022-07-05T12:16:07;30.20;85.40
45643;DHT22;31358;46.008;11.144;2022-07-05T12:18:55;30.40;85.60
45643;DHT22;31358;46.008;11.144;2022-07-05T12:21:22;30.10;83.30
45643;DHT22;31358;46.008;11.144;2022-07-05T12:23:49;29.80;84.00
45643;DHT22;31358;46.008;11.144;2022-07-05T12:26:17;30.10;83.60
45643;DHT22;31358;46.008;11.144;2022-07-05T12:28:44;30.40;83.80
45643;DHT22;31358;46.008;11.144;2022-07-05T12:31:19;30.20;84.30
45643;DHT22;31358;46.008;11.144;2022-07-05T12:33:45;30.10;84.30
45643;DHT22;31358;46.008;11.144;2022-07-05T12:36:21;30.30;83.50
45643;DHT22;31358;46.008;11.144;2022-07-05T12:38:59;30.50;83.50
45643;DHT22;31358;46.008;11.144;2022-07-05T12:41:24;30.30;84.10
45643;DHT22;31358;46.008;11.144;2022-07-05T12:43:58;30.50;83.30
45643;DHT22;31358;46.008;11.144;2022-07-05T12:46:39;30.60;83.70
45643;DHT22;31358;46.008;11.144;2022-07-05T12:49:06;30.80;82.50
45643;DHT22;31358;46.008;11.144;2022-07-05T12:51:36;30.60;82.70
45643;DHT22;31358;46.008;11.144;2022-07-05T12:54:03;31.00;83.20
45643;DHT22;31358;46.008;11.144;2022-07-05T12:56:49;31.00;81.60
45643;DHT22;31358;46.008;11.144;2022-07-05T12:59:34;31.10;83.00
45643;DHT22;31358;46.008;11.144;2022-07-05T13:02:00;31.00;81.70
45643;DHT22;31358;46.008;11.144;2022-07-05T13:04:26;31.10;83.10
45643;DHT22;31358;46.008;11.144;2022-07-05T13:06:59;31.30;81.70
45643;DHT22;31358;46.008;11.144;2022-07-05T13:12:19;31.70;83.70
45643;DHT22;31358;46.008;11.144;2022-07-05T13:14:48;31.70;81.50
45643;DHT22;31358;46.008;11.144;2022-07-05T13:17:20;31.70;81.00
45643;DHT22;31358;46.008;11.144;2022-07-05T13:19:49;31.50;79.60
45643;DHT22;31358;46.008;11.144;2022-07-05T13:22:15;30.70;80.00
45643;DHT22;31358;46.008;11.144;2022-07-05T13:24:41;30.80;81.50
45643;DHT22;31358;46.008;11.144;2022-07-05T13:27:08;31.30;83.00
45643;DHT22;31358;46.008;11.144;2022-07-05T13:29:35;31.60;80.20
45643;DHT22;31358;46.008;11.144;2022-07-05T13:32:01;31.50;80.20
45643;DHT22;31358;46.008;11.144;2022-07-05T13:34:26;31.60;79.40
45643;DHT22;31358;46.008;11.144;2022-07-05T13:36:53;31.80;81.00
45643;DHT22;31358;46.008;11.144;2022-07-05T13:39:20;31.80;79.40
45643;DHT22;31358;46.008;11.144;2022-07-05T13:41:51;31.50;78.80
45643;DHT22;31358;46.008;11.144;2022-07-05T13:44:18;31.60;80.20
45643;DHT22;31358;46.008;11.144;2022-07-05T13:46:44;31.80;79.70
45643;DHT22;31358;46.008;11.144;2022-07-05T13:49:10;31.70;78.70
45643;DHT22;31358;46.008;11.144;2022-07-05T13:51:36;31.70;78.70
45643;DHT22;31358;46.008;11.144;2022-07-05T13:54:02;31.80;78.40
45643;DHT22;31358;46.008;11.144;2022-07-05T13:56:28;31.90;78.00
45643;DHT22;31358;46.008;11.144;2022-07-05T13:58:54;32.00;78.20
45643;DHT22;31358;46.008;11.144;2022-07-05T14:01:21;31.70;77.80
45643;DHT22;31358;46.008;11.144;2022-07-05T14:03:58;31.70;78.80
45643;DHT22;31358;46.008;11.144;2022-07-05T14:06:25;32.10;78.40
45643;DHT22;31358;46.008;11.144;2022-07-05T14:08:51;32.00;77.60
45643;DHT22;31358;46.008;11.144;2022-07-05T14:11:17;31.80;78.60
45643;DHT22;31358;46.008;11.144;2022-07-05T14:13:43;32.20;78.00
45643;DHT22;31358;46.008;11.144;2022-07-05T14:16:09;31.90;75.90
45643;DHT22;31358;46.008;11.144;2022-07-05T14:18:35;31.70;76.60
45643;DHT22;31358;46.008;11.144;2022-07-05T14:21:00;31.40;77.00
45643;DHT22;31358;46.008;11.144;2022-07-05T14:23:26;30.90;77.60
45643;DHT22;31358;46.008;11.144;2022-07-05T14:25:52;30.60;78.30
45643;DHT22;31358;46.008;11.144;2022-07-05T14:28:18;30.30;77.90
45643;DHT22;31358;46.008;11.144;2022-07-05T14:30:44;30.20;78.50
45643;DHT22;31358;46.008;11.144;2022-07-05T14:33:12;30.10;78.70
45643;DHT22;31358;46.008;11.144;2022-07-05T14:35:39;30.10;77.90
45643;DHT22;31358;46.008;11.144;2022-07-05T14:38:06;30.90;79.50
45643;DHT22;31358;46.008;11.144;2022-07-05T14:40:32;31.90;78.10
45643;DHT22;31358;46.008;11.144;2022-07-05T14:42:58;32.00;77.60
45643;DHT22;31358;46.008;11.144;2022-07-05T14:45:25;31.60;77.80
45643;DHT22;31358;46.008;11.144;2022-07-05T14:47:52;31.50;77.30
45643;DHT22;31358;46.008;11.144;2022-07-05T14:50:18;31.90;77.30
45643;DHT22;31358;46.008;11.144;2022-07-05T14:52:45;32.10;76.10
45643;DHT22;31358;46.008;11.144;2022-07-05T14:55:10;32.00;75.60
45643;DHT22;31358;46.008;11.144;2022-07-05T14:57:37;31.90;75.60
45643;DHT22;31358;46.008;11.144;2022-07-05T15:00:08;32.00;76.40
45643;DHT22;31358;46.008;11.144;2022-07-05T15:02:35;32.10;75.90
45643;DHT22;31358;46.008;11.144;2022-07-05T15:05:01;31.90;75.20
45643;DHT22;31358;46.008;11.144;2022-07-05T15:07:27;32.00;75.40
45643;DHT22;31358;46.008;11.144;2022-07-05T15:09:53;32.10;76.20
45643;DHT22;31358;46.008;11.144;2022-07-05T15:12:20;32.00;76.20
45643;DHT22;31358;46.008;11.144;2022-07-05T15:14:45;32.00;76.10
45643;DHT22;31358;46.008;11.144;2022-07-05T15:17:11;32.00;76.50
45643;DHT22;31358;46.008;11.144;2022-07-05T15:19:37;32.00;76.10
45643;DHT22;31358;46.008;11.144;2022-07-05T15:22:04;32.00;75.50
45643;DHT22;31358;46.008;11.144;2022-07-05T15:24:30;32.10;75.80
45643;DHT22;31358;46.008;11.144;2022-07-05T15:26:56;32.40;77.20
45643;DHT22;31358;46.008;11.144;2022-07-05T15:29:21;32.20;76.70